sensor_id;sensor_type;location;lat;lon;timestamp;temperature;humidity
39931;DHT22;26635;-35.248;149.138;2023-03-01T00:00:05;23.20;64.20
39931;DHT22;26635;-35.248;149.138;2023-03-01T00:02:37;23.40;62.80
39931;DHT22;26635;-35.248;149.138;2023-03-01T00:05:09;23.70;63.00
39931;DHT22;26635;-35.248;149.138;2023-03-01T00:07:41;24.00;62.00
39931;DHT22;26635;-35.248;149.138;2023-03-01T00:10:13;24.10;60.00
39931;DHT22;26635;-35.248;149.138;2023-03-01T00:12:44;24.30;60.60
39931;DHT22;26635;-35.248;149.138;2023-03-01T00:15:15;24.50;60.30
39931;DHT22;26635;-35.248;149.138;2023-03-01T00:17:47;24.60;59.50
39931;DHT22;26635;-35.248;149.138;2023-03-01T00:20:19;24.90;59.20
39931;DHT22;26635;-35.248;149.138;2023-03-01T00:22:50;24.90;58.60
39931;DHT22;26635;-35.248;149.138;2023-03-01T00:25:20;25.10;58.50
39931;DHT22;26635;-35.248;149.138;2023-03-01T00:27:51;25.20;57.40
39931;DHT22;26635;-35.248;149.138;2023-03-01T00:30:21;25.20;56.60
39931;DHT22;26635;-35.248;149.138;2023-03-01T00:32:52;25.30;57.10
39931;DHT22;26635;-35.248;149.138;2023-03-01T00:35:22;25.30;57.40
39931;DHT22;26635;-35.248;149.138;2023-03-01T00:37:52;25.50;57.00
39931;DHT22;26635;-35.248;149.138;2023-03-01T00:40:29;25.60;56.00
39931;DHT22;26635;-35.248;149.138;2023-03-01T00:43:01;25.70;55.20
39931;DHT22;26635;-35.248;149.138;2023-03-01T00:45:33;25.70;55.00
39931;DHT22;26635;-35.248;149.138;2023-03-01T00:48:05;25.50;55.30
39931;DHT22;26635;-35.248;149.138;2023-03-01T00:50:35;25.30;54.90
39931;DHT22;26635;-35.248;149.138;2023-03-01T00:53:06;25.20;55.00
39931;DHT22;26635;-35.248;149.138;2023-03-01T00:55:36;25.10;54.60
39931;DHT22;26635;-35.248;149.138;2023-03-01T00:58:08;25.00;54.50
39931;DHT22;26635;-35.248;149.138;2023-03-01T01:00:40;25.10;55.40
39931;DHT22;26635;-35.248;149.138;2023-03-01T01:03:11;25.30;55.10
39931;DHT22;26635;-35.248;149.138;2023-03-01T01:05:42;25.50;55.30
39931;DHT22;26635;-35.248;149.138;2023-03-01T01:08:14;25.60;55.50
39931;DHT22;26635;-35.248;149.138;2023-03-01T01:10:49;25.80;55.00
39931;DHT22;26635;-35.248;149.138;2023-03-01T01:13:20;26.10;54.50
39931;DHT22;26635;-35.248;149.138;2023-03-01T01:15:52;26.20;54.00
39931;DHT22;26635;-35.248;149.138;2023-03-01T01:18:23;26.20;53.70
39931;DHT22;26635;-35.248;149.138;2023-03-01T01:20:54;26.10;53.10
39931;DHT22;26635;-35.248;149.138;2023-03-01T01:23:25;25.90;52.90
39931;DHT22;26635;-35.248;149.138;2023-03-01T01:25:55;25.50;52.70
39931;DHT22;26635;-35.248;149.138;2023-03-01T01:28:28;25.30;52.90
39931;DHT22;26635;-35.248;149.138;2023-03-01T01:31:01;25.40;53.20
39931;DHT22;26635;-35.248;149.138;2023-03-01T01:33:33;25.60;52.80
39931;DHT22;26635;-35.248;149.138;2023-03-01T01:36:06;26.00;51.40
39931;DHT22;26635;-35.248;149.138;2023-03-01T01:38:39;26.30;50.00
39931;DHT22;26635;-35.248;149.138;2023-03-01T01:41:13;26.50;49.60
39931;DHT22;26635;-35.248;149.138;2023-03-01T01:44:10;26.80;49.60
39931;DHT22;26635;-35.248;149.138;2023-03-01T01:49:37;27.00;47.50
39931;DHT22;26635;-35.248;149.138;2023-03-01T01:52:26;26.80;48.10
39931;DHT22;26635;-35.248;149.138;2023-03-01T01:55:19;26.50;48.00
39931;DHT22;26635;-35.248;149.138;2023-03-01T01:57:58;26.30;48.70
39931;DHT22;26635;-35.248;149.138;2023-03-01T02:00:31;26.30;47.40
39931;DHT22;26635;-35.248;149.138;2023-03-01T02:03:08;26.50;46.30
39931;DHT22;26635;-35.248;149.138;2023-03-01T02:05:47;26.70;47.20
39931;DHT22;26635;-35.248;149.138;2023-03-01T02:08:27;26.80;45.20
39931;DHT22;26635;-35.248;149.138;2023-03-01T02:11:02;27.00;44.10
39931;DHT22;26635;-35.248;149.138;2023-03-01T02:13:35;27.20;44.80
39931;DHT22;26635;-35.248;149.138;2023-03-01T02:16:10;27.30;43.50
39931;DHT22;26635;-35.248;149.138;2023-03-01T02:18:42;27.50;42.20
39931;DHT22;26635;-35.248;149.138;2023-03-01T02:21:43;27.50;40.40
39931;DHT22;26635;-35.248;149.138;2023-03-01T02:30:28;27.80;40.00
39931;DHT22;26635;-35.248;149.138;2023-03-01T02:33:00;28.00;40.70
39931;DHT22;26635;-35.248;149.138;2023-03-01T02:35:37;28.10;39.90
39931;DHT22;26635;-35.248;149.138;2023-03-01T02:38:09;28.20;40.00
39931;DHT22;26635;-35.248;149.138;2023-03-01T02:40:42;28.30;39.50
39931;DHT22;26635;-35.248;149.138;2023-03-01T02:43:16;28.30;40.30
39931;DHT22;26635;-35.248;149.138;2023-03-01T02:45:50;28.40;39.60
39931;DHT22;26635;-35.248;149.138;2023-03-01T02:48:20;28.20;40.30
39931;DHT22;26635;-35.248;149.138;2023-03-01T02:51:05;27.90;40.60
39931;DHT22;26635;-35.248;149.138;2023-03-01T02:56:37;27.30;40.30
39931;DHT22;26635;-35.248;149.138;2023-03-01T02:59:08;27.20;40.30
39931;DHT22;26635;-35.248;149.138;2023-03-01T03:01:39;27.30;42.60
39931;DHT22;26635;-35.248;149.138;2023-03-01T03:04:16;27.40;41.20
39931;DHT22;26635;-35.248;149.138;2023-03-01T03:06:49;27.60;41.90
39931;DHT22;26635;-35.248;149.138;2023-03-01T03:09:19;27.70;40.60
39931;DHT22;26635;-35.248;149.138;2023-03-01T03:11:50;27.70;41.80
39931;DHT22;26635;-35.248;149.138;2023-03-01T03:14:21;27.90;41.20
39931;DHT22;26635;-35.248;149.138;2023-03-01T03:16:51;28.10;40.30
39931;DHT22;26635;-35.248;149.138;2023-03-01T03:19:22;28.20;40.20
39931;DHT22;26635;-35.248;149.138;2023-03-01T03:21:53;28.30;40.50
39931;DHT22;26635;-35.248;149.138;2023-03-01T03:24:23;28.30;40.90
39931;DHT22;26635;-35.248;149.138;2023-03-01T03:26:53;28.40;41.00
39931;DHT22;26635;-35.248;149.138;2023-03-01T03:29:24;28.50;39.50
39931;DHT22;26635;-35.248;149.138;2023-03-01T03:31:58;28.50;39.10
39931;DHT22;26635;-35.248;149.138;2023-03-01T03:34:28;28.40;38.00
39931;DHT22;26635;-35.248;149.138;2023-03-01T03:36:59;28.40;38.60
39931;DHT22;26635;-35.248;149.138;2023-03-01T03:39:30;28.60;40.10
39931;DHT22;26635;-35.248;149.138;2023-03-01T03:42:04;28.50;37.10
39931;DHT22;26635;-35.248;149.138;2023-03-01T03:44:35;28.40;38.30
39931;DHT22;26635;-35.248;149.138;2023-03-01T03:47:08;28.40;38.70
39931;DHT22;26635;-35.248;149.138;2023-03-01T03:49:39;28.40;37.60
39931;DHT22;26635;-35.248;149.138;2023-03-01T03:52:09;28.40;38.90
39931;DHT22;26635;-35.248;149.138;2023-03-01T03:54:42;28.40;39.20
39931;DHT22;26635;-35.248;149.138;2023-03-01T03:57:13;28.50;37.70
39931;DHT22;26635;-35.248;149.138;2023-03-01T03:59:43;28.50;38.40
39931;DHT22;26635;-35.248;149.138;2023-03-01T04:02:13;28.60;39.20
39931;DHT22;26635;-35.248;149.138;2023-03-01T04:04:54;28.50;38.70
39931;DHT22;26635;-35.248;149.138;2023-03-01T04:07:24;28.30;39.40
39931;DHT22;26635;-35.248;149.138;2023-03-01T04:09:55;28.30;40.40
39931;DHT22;26635;-35.248;149.138;2023-03-01T04:12:25;28.40;39.20
39931;DHT22;26635;-35.248;149.138;2023-03-01T04:14:56;28.40;38.60
39931;DHT22;26635;-35.248;149.138;2023-03-01T04:17:30;28.30;38.90
39931;DHT22;26635;-35.248;149.138;2023-03-01T04:20:00;28.00;39.00
39931;DHT22;26635;-35.248;149.138;2023-03-01T04:22:35;27.80;39.60
39931;DHT22;26635;-35.248;149.138;2023-03-01T04:25:06;27.50;40.10
39931;DHT22;26635;-35.248;149.138;2023-03-01T04:27:37;27.30;40.80
39931;DHT22;26635;-35.248;149.138;2023-03-01T04:30:09;27.10;41.40
39931;DHT22;26635;-35.248;149.138;2023-03-01T04:32:41;26.90;42.00
39931;DHT22;26635;-35.248;149.138;2023-03-01T04:35:11;26.80;43.40
39931;DHT22;26635;-35.248;149.138;2023-03-01T04:37:42;26.70;39.80
39931;DHT22;26635;-35.248;149.138;2023-03-01T04:40:14;26.60;40.60
39931;DHT22;26635;-35.248;149.138;2023-03-01T04:42:48;26.50;40.90
39931;DHT22;26635;-35.248;149.138;2023-03-01T04:45:19;26.40;42.60
39931;DHT22;26635;-35.248;149.138;2023-03-01T04:47:49;26.40;45.70
39931;DHT22;26635;-35.248;149.138;2023-03-01T04:50:21;26.50;48.30
39931;DHT22;26635;-35.248;149.138;2023-03-01T04:52:53;26.50;48.60
39931;DHT22;26635;-35.248;149.138;2023-03-01T04:55:25;26.50;48.80
39931;DHT22;26635;-35.248;149.138;2023-03-01T04:57:56;26.50;49.10
39931;DHT22;26635;-35.248;149.138;2023-03-01T05:00:27;26.60;48.20
39931;DHT22;26635;-35.248;149.138;2023-03-01T05:03:00;26.70;47.90
39931;DHT22;26635;-35.248;149.138;2023-03-01T05:05:33;26.70;48.20
39931;DHT22;26635;-35.248;149.138;2023-03-01T05:08:10;26.70;48.50
39931;DHT22;26635;-35.248;149.138;2023-03-01T05:10:52;26.70;48.40
39931;DHT22;26635;-35.248;149.138;2023-03-01T05:13:23;26.70;48.30
39931;DHT22;26635;-35.248;149.138;2023-03-01T05:15:56;26.60;47.90
39931;DHT22;26635;-35.248;149.138;2023-03-01T05:18:29;26.60;48.00
39931;DHT22;26635;-35.248;149.138;2023-03-01T05:21:09;26.50;48.10
39931;DHT22;26635;-35.248;149.138;2023-03-01T05:23:41;26.50;47.20
39931;DHT22;26635;-35.248;149.138;2023-03-01T05:26:13;26.40;46.80
39931;DHT22;26635;-35.248;149.138;2023-03-01T05:28:57;26.30;46.20
39931;DHT22;26635;-35.248;149.138;2023-03-01T05:31:28;26.30;45.80
39931;DHT22;26635;-35.248;149.138;2023-03-01T05:34:00;26.30;47.60
39931;DHT22;26635;-35.248;149.138;2023-03-01T05:36:31;26.40;50.10
39931;DHT22;26635;-35.248;149.138;2023-03-01T05:39:01;26.30;50.60
39931;DHT22;26635;-35.248;149.138;2023-03-01T05:41:32;26.30;51.50
39931;DHT22;26635;-35.248;149.138;2023-03-01T05:44:02;26.10;51.60
39931;DHT22;26635;-35.248;149.138;2023-03-01T05:46:34;25.90;51.70
39931;DHT22;26635;-35.248;149.138;2023-03-01T05:49:05;25.70;51.60
39931;DHT22;26635;-35.248;149.138;2023-03-01T05:51:35;25.60;52.20
39931;DHT22;26635;-35.248;149.138;2023-03-01T05:54:06;25.50;52.30
39931;DHT22;26635;-35.248;149.138;2023-03-01T05:56:38;25.30;53.00
39931;DHT22;26635;-35.248;149.138;2023-03-01T05:59:09;25.20;53.90
39931;DHT22;26635;-35.248;149.138;2023-03-01T06:01:40;25.10;54.50
39931;DHT22;26635;-35.248;149.138;2023-03-01T06:04:11;25.00;54.50
39931;DHT22;26635;-35.248;149.138;2023-03-01T06:06:42;25.00;54.90
39931;DHT22;26635;-35.248;149.138;2023-03-01T06:09:12;24.90;54.60
39931;DHT22;26635;-35.248;149.138;2023-03-01T06:11:44;24.80;55.20
39931;DHT22;26635;-35.248;149.138;2023-03-01T06:14:15;24.70;55.20
39931;DHT22;26635;-35.248;149.138;2023-03-01T06:16:47;24.60;55.10
39931;DHT22;26635;-35.248;149.138;2023-03-01T06:19:23;24.60;55.70
39931;DHT22;26635;-35.248;149.138;2023-03-01T06:21:54;24.50;55.70
39931;DHT22;26635;-35.248;149.138;2023-03-01T06:24:25;24.50;56.00
39931;DHT22;26635;-35.248;149.138;2023-03-01T06:26:58;24.60;56.20
39931;DHT22;26635;-35.248;149.138;2023-03-01T06:29:30;24.60;54.90
39931;DHT22;26635;-35.248;149.138;2023-03-01T06:32:00;24.60;54.80
39931;DHT22;26635;-35.248;149.138;2023-03-01T06:34:33;24.60;54.70
39931;DHT22;26635;-35.248;149.138;2023-03-01T06:37:04;24.60;54.50
39931;DHT22;26635;-35.248;149.138;2023-03-01T06:39:35;24.60;55.10
39931;DHT22;26635;-35.248;149.138;2023-03-01T06:42:08;24.60;55.40
39931;DHT22;26635;-35.248;149.138;2023-03-01T06:44:43;24.60;56.10
39931;DHT22;26635;-35.248;149.138;2023-03-01T06:47:14;24.60;56.10
39931;DHT22;26635;-35.248;149.138;2023-03-01T06:49:45;24.70;55.90
39931;DHT22;26635;-35.248;149.138;2023-03-01T06:52:15;24.60;55.60
39931;DHT22;26635;-35.248;149.138;2023-03-01T06:54:46;24.60;55.70
39931;DHT22;26635;-35.248;149.138;2023-03-01T06:57:17;24.50;55.20
39931;DHT22;26635;-35.248;149.138;2023-03-01T06:59:51;24.50;55.60
39931;DHT22;26635;-35.248;149.138;2023-03-01T07:02:22;24.40;55.30
39931;DHT22;26635;-35.248;149.138;2023-03-01T07:05:11;24.30;56.10
39931;DHT22;26635;-35.248;149.138;2023-03-01T07:07:41;24.30;56.70
39931;DHT22;26635;-35.248;149.138;2023-03-01T07:10:12;24.30;57.10
39931;DHT22;26635;-35.248;149.138;2023-03-01T07:12:43;24.30;57.00
39931;DHT22;26635;-35.248;149.138;2023-03-01T07:15:14;24.30;56.60
39931;DHT22;26635;-35.248;149.138;2023-03-01T07:17:44;24.30;56.60
39931;DHT22;26635;-35.248;149.138;2023-03-01T07:20:20;24.20;56.90
39931;DHT22;26635;-35.248;149.138;2023-03-01T07:22:55;24.20;57.80
39931;DHT22;26635;-35.248;149.138;2023-03-01T07:25:28;24.10;57.10
39931;DHT22;26635;-35.248;149.138;2023-03-01T07:27:58;24.10;57.40
39931;DHT22;26635;-35.248;149.138;2023-03-01T07:30:29;24.00;57.60
39931;DHT22;26635;-35.248;149.138;2023-03-01T07:33:00;23.80;57.80
39931;DHT22;26635;-35.248;149.138;2023-03-01T07:35:31;23.80;58.30
39931;DHT22;26635;-35.248;149.138;2023-03-01T07:38:03;23.70;58.60
39931;DHT22;26635;-35.248;149.138;2023-03-01T07:40:33;23.70;59.20
39931;DHT22;26635;-35.248;149.138;2023-03-01T07:43:04;23.60;58.60
39931;DHT22;26635;-35.248;149.138;2023-03-01T07:45:34;23.60;59.40
39931;DHT22;26635;-35.248;149.138;2023-03-01T07:48:05;23.60;59.80
39931;DHT22;26635;-35.248;149.138;2023-03-01T07:50:38;23.50;59.40
39931;DHT22;26635;-35.248;149.138;2023-03-01T07:53:09;23.40;59.70
39931;DHT22;26635;-35.248;149.138;2023-03-01T07:55:39;23.30;59.90
39931;DHT22;26635;-35.248;149.138;2023-03-01T07:58:10;23.30;60.00
39931;DHT22;26635;-35.248;149.138;2023-03-01T08:00:40;23.20;60.20
39931;DHT22;26635;-35.248;149.138;2023-03-01T08:03:11;23.20;60.50
39931;DHT22;26635;-35.248;149.138;2023-03-01T08:05:41;23.10;60.60
39931;DHT22;26635;-35.248;149.138;2023-03-01T08:08:13;23.00;60.80
39931;DHT22;26635;-35.248;149.138;2023-03-01T08:10:45;22.90;61.00
39931;DHT22;26635;-35.248;149.138;2023-03-01T08:13:20;22.80;61.60
39931;DHT22;26635;-35.248;149.138;2023-03-01T08:15:52;22.60;62.00
39931;DHT22;26635;-35.248;149.138;2023-03-01T08:18:24;22.50;62.60
39931;DHT22;26635;-35.248;149.138;2023-03-01T08:20:55;22.40;62.90
39931;DHT22;26635;-35.248;149.138;2023-03-01T08:23:25;22.40;63.50
39931;DHT22;26635;-35.248;149.138;2023-03-01T08:28:39;22.20;63.50
39931;DHT22;26635;-35.248;149.138;2023-03-01T08:31:17;22.20;64.00
39931;DHT22;26635;-35.248;149.138;2023-03-01T08:34:00;22.10;63.70
39931;DHT22;26635;-35.248;149.138;2023-03-01T08:36:34;22.10;63.90
39931;DHT22;26635;-35.248;149.138;2023-03-01T08:39:05;22.00;64.00
39931;DHT22;26635;-35.248;149.138;2023-03-01T08:41:36;21.90;64.10
39931;DHT22;26635;-35.248;149.138;2023-03-01T08:44:09;21.90;64.60
39931;DHT22;26635;-35.248;149.138;2023-03-01T08:46:41;21.80;65.00
39931;DHT22;26635;-35.248;149.138;2023-03-01T08:49:14;21.70;64.80
39931;DHT22;26635;-35.248;149.138;2023-03-01T08:51:46;21.70;65.50
39931;DHT22;26635;-35.248;149.138;2023-03-01T08:54:19;21.70;65.50
39931;DHT22;26635;-35.248;149.138;2023-03-01T08:56:49;21.60;65.20
39931;DHT22;26635;-35.248;149.138;2023-03-01T08:59:20;21.50;65.50
39931;DHT22;26635;-35.248;149.138;2023-03-01T09:01:50;21.50;65.80
39931;DHT22;26635;-35.248;149.138;2023-03-01T09:04:21;21.50;66.00
39931;DHT22;26635;-35.248;149.138;2023-03-01T09:06:55;21.40;66.10
39931;DHT22;26635;-35.248;149.138;2023-03-01T09:09:25;21.30;66.60
39931;DHT22;26635;-35.248;149.138;2023-03-01T09:11:57;21.30;67.20
39931;DHT22;26635;-35.248;149.138;2023-03-01T09:14:28;21.20;67.20
39931;DHT22;26635;-35.248;149.138;2023-03-01T09:17:01;21.20;67.30
39931;DHT22;26635;-35.248;149.138;2023-03-01T09:19:32;21.20;68.00
39931;DHT22;26635;-35.248;149.138;2023-03-01T09:22:04;21.10;68.40
39931;DHT22;26635;-35.248;149.138;2023-03-01T09:24:34;21.20;68.30
39931;DHT22;26635;-35.248;149.138;2023-03-01T09:27:05;21.20;67.90
39931;DHT22;26635;-35.248;149.138;2023-03-01T09:29:38;21.20;68.00
39931;DHT22;26635;-35.248;149.138;2023-03-01T09:32:09;21.10;68.40
39931;DHT22;26635;-35.248;149.138;2023-03-01T09:34:40;21.10;68.60
39931;DHT22;26635;-35.248;149.138;2023-03-01T09:37:28;21.00;68.90
39931;DHT22;26635;-35.248;149.138;2023-03-01T09:40:04;20.90;69.00
39931;DHT22;26635;-35.248;149.138;2023-03-01T09:42:44;20.90;69.80
39931;DHT22;26635;-35.248;149.138;2023-03-01T09:45:29;20.90;69.90
39931;DHT22;26635;-35.248;149.138;2023-03-01T09:48:18;20.90;69.70
39931;DHT22;26635;-35.248;149.138;2023-03-01T09:50:52;20.90;69.80
39931;DHT22;26635;-35.248;149.138;2023-03-01T09:53:36;20.90;70.80
39931;DHT22;26635;-35.248;149.138;2023-03-01T09:56:17;20.90;71.70
39931;DHT22;26635;-35.248;149.138;2023-03-01T10:04:39;20.50;72.80
39931;DHT22;26635;-35.248;149.138;2023-03-01T10:09:45;20.50;72.90
39931;DHT22;26635;-35.248;149.138;2023-03-01T10:12:35;20.50;72.60
39931;DHT22;26635;-35.248;149.138;2023-03-01T10:15:11;20.40;72.70
39931;DHT22;26635;-35.248;149.138;2023-03-01T10:17:56;20.40;72.10
39931;DHT22;26635;-35.248;149.138;2023-03-01T10:20:56;20.40;72.20
39931;DHT22;26635;-35.248;149.138;2023-03-01T10:23:27;20.40;72.10
39931;DHT22;26635;-35.248;149.138;2023-03-01T10:29:09;20.40;72.40
39931;DHT22;26635;-35.248;149.138;2023-03-01T10:31:53;20.50;71.90
39931;DHT22;26635;-35.248;149.138;2023-03-01T10:34:34;20.50;71.90
39931;DHT22;26635;-35.248;149.138;2023-03-01T10:37:16;20.50;71.70
39931;DHT22;26635;-35.248;149.138;2023-03-01T10:40:01;20.50;71.80
39931;DHT22;26635;-35.248;149.138;2023-03-01T10:42:48;20.40;71.60
39931;DHT22;26635;-35.248;149.138;2023-03-01T10:45:39;20.30;71.10
39931;DHT22;26635;-35.248;149.138;2023-03-01T10:48:15;20.30;71.20
39931;DHT22;26635;-35.248;149.138;2023-03-01T10:50:48;20.20;71.70
39931;DHT22;26635;-35.248;149.138;2023-03-01T10:53:41;20.20;71.80
39931;DHT22;26635;-35.248;149.138;2023-03-01T10:56:14;20.20;71.90
39931;DHT22;26635;-35.248;149.138;2023-03-01T10:59:01;20.10;72.00
39931;DHT22;26635;-35.248;149.138;2023-03-01T11:01:36;20.10;71.90
39931;DHT22;26635;-35.248;149.138;2023-03-01T11:06:41;20.10;72.00
39931;DHT22;26635;-35.248;149.138;2023-03-01T11:09:22;20.00;71.80
39931;DHT22;26635;-35.248;149.138;2023-03-01T11:11:57;20.00;72.20
39931;DHT22;26635;-35.248;149.138;2023-03-01T11:14:33;19.90;72.00
39931;DHT22;26635;-35.248;149.138;2023-03-01T11:19:44;19.80;72.40
39931;DHT22;26635;-35.248;149.138;2023-03-01T11:22:31;19.70;72.80
39931;DHT22;26635;-35.248;149.138;2023-03-01T11:25:04;19.60;73.10
39931;DHT22;26635;-35.248;149.138;2023-03-01T11:27:41;19.60;72.90
39931;DHT22;26635;-35.248;149.138;2023-03-01T11:30:32;19.60;73.30
39931;DHT22;26635;-35.248;149.138;2023-03-01T11:33:18;19.50;73.40
39931;DHT22;26635;-35.248;149.138;2023-03-01T11:36:01;19.40;73.40
39931;DHT22;26635;-35.248;149.138;2023-03-01T11:38:35;19.40;73.90
39931;DHT22;26635;-35.248;149.138;2023-03-01T11:41:18;19.30;73.90
39931;DHT22;26635;-35.248;149.138;2023-03-01T11:43:59;19.20;74.50
39931;DHT22;26635;-35.248;149.138;2023-03-01T12:29:31;18.40;77.90
39931;DHT22;26635;-35.248;149.138;2023-03-01T12:38:42;18.30;77.80
39931;DHT22;26635;-35.248;149.138;2023-03-01T12:44:21;18.20;78.50
39931;DHT22;26635;-35.248;149.138;2023-03-01T12:50:02;18.20;78.40
39931;DHT22;26635;-35.248;149.138;2023-03-01T13:06:43;17.90;79.60
39931;DHT22;26635;-35.248;149.138;2023-03-01T13:28:47;17.70;80.10
39931;DHT22;26635;-35.248;149.138;2023-03-01T13:33:53;17.60;81.20
39931;DHT22;26635;-35.248;149.138;2023-03-01T13:39:18;17.40;81.30
39931;DHT22;26635;-35.248;149.138;2023-03-01T13:41:56;17.40;81.00
39931;DHT22;26635;-35.248;149.138;2023-03-01T13:49:55;17.40;81.70
39931;DHT22;26635;-35.248;149.138;2023-03-01T13:54:58;17.30;82.70
39931;DHT22;26635;-35.248;149.138;2023-03-01T13:57:34;17.30;82.50
39931;DHT22;26635;-35.248;149.138;2023-03-01T14:00:24;17.20;82.30
39931;DHT22;26635;-35.248;149.138;2023-03-01T14:03:13;17.20;82.10
39931;DHT22;26635;-35.248;149.138;2023-03-01T14:06:06;17.20;82.70
39931;DHT22;26635;-35.248;149.138;2023-03-01T14:08:46;17.20;82.90
39931;DHT22;26635;-35.248;149.138;2023-03-01T14:14:23;17.20;82.70
39931;DHT22;26635;-35.248;149.138;2023-03-01T14:19:33;17.10;83.00
39931;DHT22;26635;-35.248;149.138;2023-03-01T14:25:02;17.10;84.00
39931;DHT22;26635;-35.248;149.138;2023-03-01T14:27:37;17.10;83.50
39931;DHT22;26635;-35.248;149.138;2023-03-01T14:30:25;17.10;83.70
39931;DHT22;26635;-35.248;149.138;2023-03-01T14:33:03;17.10;83.50
39931;DHT22;26635;-35.248;149.138;2023-03-01T14:35:36;17.10;83.60
39931;DHT22;26635;-35.248;149.138;2023-03-01T14:38:19;17.10;84.10
39931;DHT22;26635;-35.248;149.138;2023-03-01T14:40:59;17.10;84.40
39931;DHT22;26635;-35.248;149.138;2023-03-01T14:43:33;17.10;84.70
39931;DHT22;26635;-35.248;149.138;2023-03-01T14:46:06;17.10;84.90
39931;DHT22;26635;-35.248;149.138;2023-03-01T14:48:49;17.10;85.10
39931;DHT22;26635;-35.248;149.138;2023-03-01T14:51:21;17.10;85.00
39931;DHT22;26635;-35.248;149.138;2023-03-01T14:53:52;17.10;85.30
39931;DHT22;26635;-35.248;149.138;2023-03-01T14:56:22;17.20;85.50
39931;DHT22;26635;-35.248;149.138;2023-03-01T14:58:54;17.20;85.60
39931;DHT22;26635;-35.248;149.138;2023-03-01T15:01:28;17.30;85.80
39931;DHT22;26635;-35.248;149.138;2023-03-01T15:04:00;17.30;85.60
39931;DHT22;26635;-35.248;149.138;2023-03-01T15:06:31;17.40;85.40
39931;DHT22;26635;-35.248;149.138;2023-03-01T15:09:02;17.40;85.20
39931;DHT22;26635;-35.248;149.138;2023-03-01T15:11:33;17.50;85.30
39931;DHT22;26635;-35.248;149.138;2023-03-01T15:17:37;17.60;85.00
39931;DHT22;26635;-35.248;149.138;2023-03-01T15:20:19;17.60;85.00
39931;DHT22;26635;-35.248;149.138;2023-03-01T15:22:56;17.70;84.70
39931;DHT22;26635;-35.248;149.138;2023-03-01T15:25:29;17.70;84.70
39931;DHT22;26635;-35.248;149.138;2023-03-01T15:28:01;17.80;84.80
39931;DHT22;26635;-35.248;149.138;2023-03-01T15:30:34;17.80;84.80
39931;DHT22;26635;-35.248;149.138;2023-03-01T15:33:36;17.90;84.60
39931;DHT22;26635;-35.248;149.138;2023-03-01T15:36:43;17.90;84.40
39931;DHT22;26635;-35.248;149.138;2023-03-01T15:39:39;17.90;84.40
39931;DHT22;26635;-35.248;149.138;2023-03-01T15:48:01;18.10;84.70
39931;DHT22;26635;-35.248;149.138;2023-03-01T15:50:36;18.10;84.20
39931;DHT22;26635;-35.248;149.138;2023-03-01T15:53:14;18.10;84.10
39931;DHT22;26635;-35.248;149.138;2023-03-01T15:55:44;18.10;83.90
39931;DHT22;26635;-35.248;149.138;2023-03-01T15:58:25;18.10;83.90
39931;DHT22;26635;-35.248;149.138;2023-03-01T16:00:55;18.10;84.20
39931;DHT22;26635;-35.248;149.138;2023-03-01T16:03:29;18.20;84.00
39931;DHT22;26635;-35.248;149.138;2023-03-01T16:05:59;18.20;83.80
39931;DHT22;26635;-35.248;149.138;2023-03-01T16:08:33;18.20;83.80
39931;DHT22;26635;-35.248;149.138;2023-03-01T16:11:08;18.20;83.80
39931;DHT22;26635;-35.248;149.138;2023-03-01T16:13:40;18.20;83.70
39931;DHT22;26635;-35.248;149.138;2023-03-01T16:16:15;18.20;83.80
39931;DHT22;26635;-35.248;149.138;2023-03-01T16:18:47;18.20;83.70
39931;DHT22;26635;-35.248;149.138;2023-03-01T16:21:22;18.20;83.50
39931;DHT22;26635;-35.248;149.138;2023-03-01T16:23:56;18.20;83.60
39931;DHT22;26635;-35.248;149.138;2023-03-01T16:26:27;18.20;83.30
39931;DHT22;26635;-35.248;149.138;2023-03-01T16:28:58;18.20;83.60
39931;DHT22;26635;-35.248;149.138;2023-03-01T16:31:28;18.20;83.40
39931;DHT22;26635;-35.248;149.138;2023-03-01T16:33:59;18.20;83.40
39931;DHT22;26635;-35.248;149.138;2023-03-01T16:36:31;18.20;83.20
39931;DHT22;26635;-35.248;149.138;2023-03-01T16:39:01;18.10;83.70
39931;DHT22;26635;-35.248;149.138;2023-03-01T16:41:32;18.10;83.80
39931;DHT22;26635;-35.248;149.138;2023-03-01T16:44:03;18.10;83.50
39931;DHT22;26635;-35.248;149.138;2023-03-01T16:46:36;18.10;83.50
39931;DHT22;26635;-35.248;149.138;2023-03-01T16:49:06;18.10;83.90
39931;DHT22;26635;-35.248;149.138;2023-03-01T16:51:36;18.00;83.70
39931;DHT22;26635;-35.248;149.138;2023-03-01T16:54:07;18.00;83.90
39931;DHT22;26635;-35.248;149.138;2023-03-01T16:56:37;18.00;84.30
39931;DHT22;26635;-35.248;149.138;2023-03-01T16:59:09;18.00;84.40
39931;DHT22;26635;-35.248;149.138;2023-03-01T17:01:39;18.00;84.00
39931;DHT22;26635;-35.248;149.138;2023-03-01T17:04:13;18.10;84.00
39931;DHT22;26635;-35.248;149.138;2023-03-01T17:06:46;18.10;84.00
39931;DHT22;26635;-35.248;149.138;2023-03-01T17:09:18;18.10;83.40
39931;DHT22;26635;-35.248;149.138;2023-03-01T17:11:51;18.10;83.80
39931;DHT22;26635;-35.248;149.138;2023-03-01T17:14:24;18.00;83.50
39931;DHT22;26635;-35.248;149.138;2023-03-01T17:16:54;18.00;83.40
39931;DHT22;26635;-35.248;149.138;2023-03-01T17:19:28;18.10;83.60
39931;DHT22;26635;-35.248;149.138;2023-03-01T17:21:59;18.10;83.70
39931;DHT22;26635;-35.248;149.138;2023-03-01T17:24:36;18.00;83.90
39931;DHT22;26635;-35.248;149.138;2023-03-01T17:27:08;18.10;83.50
39931;DHT22;26635;-35.248;149.138;2023-03-01T17:29:40;18.10;83.40
39931;DHT22;26635;-35.248;149.138;2023-03-01T17:32:10;18.10;84.20
39931;DHT22;26635;-35.248;149.138;2023-03-01T17:34:41;18.10;83.50
39931;DHT22;26635;-35.248;149.138;2023-03-01T17:37:11;18.10;83.20
39931;DHT22;26635;-35.248;149.138;2023-03-01T17:39:41;18.10;83.10
39931;DHT22;26635;-35.248;149.138;2023-03-01T17:42:12;18.10;83.00
39931;DHT22;26635;-35.248;149.138;2023-03-01T17:44:42;18.10;83.00
39931;DHT22;26635;-35.248;149.138;2023-03-01T17:47:13;18.10;82.90
39931;DHT22;26635;-35.248;149.138;2023-03-01T17:49:43;18.10;82.90
39931;DHT22;26635;-35.248;149.138;2023-03-01T17:52:13;18.10;83.00
39931;DHT22;26635;-35.248;149.138;2023-03-01T17:54:44;18.10;83.20
39931;DHT22;26635;-35.248;149.138;2023-03-01T17:57:14;18.10;83.00
39931;DHT22;26635;-35.248;149.138;2023-03-01T17:59:44;18.10;82.50